Time;durP1;ratioP1;P1;durP2;ratioP2;P2;SDS_P1;SDS_P2;PMS_P1;PMS_P2;Temp;Humidity;BMP_temperature;BMP_pressure;BME280_temperature;BME280_humidity;BME280_pressure;Samples;Min_cycle;Max_cycle;Signal;HPM_P1;HPM_P2
2021/12/17 00:00:19;;;;;;;16.95;10.43;;;;;14.50;103814.00;;;;5028224;28;20220;-79
2021/12/17 00:03:09;;;;;;;18.17;11.05;;;;;14.50;103808.00;;;;5028762;28;20200;-79
2021/12/17 00:05:53;;;;;;;15.98;10.63;;;;;14.40;103814.00;;;;5027885;28;20216;-79
2021/12/17 00:08:23;;;;;;;15.57;10.25;;;;;14.50;103811.00;;;;5011658;28;20216;-77
2021/12/17 00:10:52;;;;;;;17.75;11.80;;;;;14.40;103811.00;;;;5027519;28;21055;-78
2021/12/17 00:13:20;;;;;;;14.70;10.82;;;;;14.40;103806.00;;;;5027922;28;20204;-78
2021/12/17 00:15:47;;;;;;;15.35;10.43;;;;;14.50;103810.00;;;;5027520;28;20674;-78
2021/12/17 00:18:21;;;;;;;14.80;11.02;;;;;14.50;103806.00;;;;5027363;28;20545;-80
2021/12/17 00:48:35;;;;;;;13.93;10.50;;;;;14.40;103818.00;;;;5026531;28;20247;-78
2021/12/17 00:51:37;;;;;;;13.55;10.13;;;;;14.40;103815.00;;;;5026998;28;20207;-79
2021/12/17 00:54:07;;;;;;;17.10;12.00;;;;;14.40;103815.00;;;;5025780;28;20203;-79
2021/12/17 00:56:35;;;;;;;14.52;10.80;;;;;14.40;103813.00;;;;5013765;28;20216;-79
2021/12/17 00:59:03;;;;;;;17.10;11.40;;;;;14.40;103808.00;;;;5020426;28;20209;-79
2021/12/17 01:01:31;;;;;;;15.52;11.20;;;;;14.40;103812.00;;;;5026217;28;20289;-78
2021/12/17 01:03:58;;;;;;;16.17;11.45;;;;;14.40;103812.00;;;;5026828;28;20207;-79
2021/12/17 01:06:26;;;;;;;17.30;12.02;;;;;14.40;103803.00;;;;5030167;28;20219;-79
2021/12/17 01:08:54;;;;;;;17.45;11.88;;;;;14.40;103806.00;;;;5031134;28;20192;-78
2021/12/17 01:11:23;;;;;;;18.73;11.27;;;;;14.40;103812.00;;;;5030595;28;20555;-78
2021/12/17 01:13:50;;;;;;;17.15;11.93;;;;;14.40;103815.00;;;;5021988;28;20246;-78
2021/12/17 01:16:19;;;;;;;18.33;11.77;;;;;14.40;103807.00;;;;5020345;28;20622;-79
2021/12/17 01:18:56;;;;;;;16.75;12.13;;;;;14.40;103803.00;;;;5029660;28;20211;-78
2021/12/17 01:21:32;;;;;;;15.13;11.13;;;;;14.40;103805.00;;;;5030307;28;20600;-79
2021/12/17 01:24:12;;;;;;;17.85;11.95;;;;;14.40;103806.00;;;;5030510;28;20707;-78
2021/12/17 01:43:32;;;;;;;12.75;8.65;;;;;14.30;103807.00;;;;5029916;28;20227;-79
2021/12/17 01:46:01;;;;;;;12.90;9.45;;;;;14.30;103804.00;;;;5029870;28;20196;-79
2021/12/17 01:48:37;;;;;;;10.60;8.32;;;;;14.30;103803.00;;;;5029646;28;20594;-79
2021/12/17 01:56:52;;;;;;;12.20;8.27;;;;;14.30;103805.00;;;;5029440;28;20713;-78
2021/12/17 01:59:29;;;;;;;10.52;8.45;;;;;14.30;103809.00;;;;5026337;28;20204;-78
2021/12/17 02:02:02;;;;;;;11.18;8.32;;;;;14.30;103820.00;;;;5026613;28;20254;-79
2021/12/17 02:04:31;;;;;;;10.77;7.70;;;;;14.30;103821.00;;;;5030054;28;20198;-79
2021/12/17 02:06:59;;;;;;;12.23;8.70;;;;;14.30;103822.00;;;;5027131;28;20294;-79
2021/12/17 02:10:09;;;;;;;12.90;8.55;;;;;14.30;103821.00;;;;5028951;28;20681;-79
2021/12/17 02:12:59;;;;;;;10.27;7.88;;;;;14.30;103828.00;;;;5023615;28;20188;-79
2021/12/17 02:21:21;;;;;;;11.48;8.20;;;;;14.30;103818.00;;;;5028794;28;20227;-79
2021/12/17 02:30:02;;;;;;;12.23;8.73;;;;;14.40;103820.00;;;;5008493;28;20246;-79
2021/12/17 02:32:32;;;;;;;11.75;8.48;;;;;14.40;103822.00;;;;5027621;28;20575;-79
2021/12/17 02:35:20;;;;;;;11.75;8.35;;;;;14.40;103822.00;;;;5029928;28;20667;-79
2021/12/17 02:37:50;;;;;;;11.35;7.82;;;;;14.40;103821.00;;;;5010305;28;20204;-79
2021/12/17 02:42:29;;;;;;;9.25;7.32;;;;;14.40;103829.00;;;;5012114;28;20197;-79
2021/12/17 02:45:54;;;;;;;10.93;8.27;;;;;14.40;103825.00;;;;5029672;28;20277;-79
2021/12/17 02:48:24;;;;;;;11.95;8.73;;;;;14.30;103829.00;;;;5028919;28;20216;-79
2021/12/17 02:50:53;;;;;;;11.90;8.18;;;;;14.40;103826.00;;;;5029684;28;20204;-79
2021/12/17 02:53:24;;;;;;;11.52;8.30;;;;;14.40;103829.00;;;;5027418;28;20199;-78
2021/12/17 02:55:54;;;;;;;12.10;8.50;;;;;14.40;103823.00;;;;5028920;28;20227;-79
2021/12/17 02:58:24;;;;;;;11.07;7.85;;;;;14.40;103820.00;;;;5025373;28;20200;-79
2021/12/17 03:00:52;;;;;;;12.10;8.73;;;;;14.40;103812.00;;;;5027920;28;20199;-79
2021/12/17 03:03:21;;;;;;;11.98;8.52;;;;;14.50;103815.00;;;;5029064;28;20651;-79
2021/12/17 03:05:49;;;;;;;11.57;8.48;;;;;14.50;103813.00;;;;5023807;28;20205;-79
2021/12/17 03:08:17;;;;;;;12.18;9.05;;;;;14.50;103815.00;;;;5018117;28;20733;-80
2021/12/17 03:10:48;;;;;;;12.45;9.40;;;;;14.50;103805.00;;;;5028014;28;20247;-79
2021/12/17 03:13:16;;;;;;;13.63;9.68;;;;;14.50;103811.00;;;;5027871;28;20487;-79
2021/12/17 03:15:49;;;;;;;11.57;8.73;;;;;14.50;103808.00;;;;5028244;28;20219;-79
2021/12/17 03:18:50;;;;;;;14.75;9.25;;;;;14.50;103811.00;;;;5028413;28;20588;-78
2021/12/17 03:24:03;;;;;;;12.27;9.13;;;;;14.60;103810.00;;;;5027875;28;20254;-79
2021/12/17 03:26:32;;;;;;;11.68;8.35;;;;;14.50;103805.00;;;;5028298;28;20196;-79
2021/12/17 03:29:03;;;;;;;13.23;9.68;;;;;14.60;103802.00;;;;5027129;28;20246;-79
2021/12/17 03:31:31;;;;;;;12.00;8.82;;;;;14.60;103805.00;;;;5024575;28;20232;-79
2021/12/17 03:34:11;;;;;;;13.75;9.32;;;;;14.60;103801.00;;;;5009223;28;20402;-79
2021/12/17 03:36:38;;;;;;;12.38;9.55;;;;;14.60;103812.00;;;;5021350;28;20199;-79
2021/12/17 03:39:05;;;;;;;11.60;8.52;;;;;14.60;103821.00;;;;5028186;28;20200;-79
2021/12/17 03:41:37;;;;;;;14.25;8.20;;;;;14.60;103816.00;;;;5027843;28;20208;-79
2021/12/17 03:44:07;;;;;;;11.27;8.27;;;;;14.60;103813.00;;;;5028104;28;20196;-79
2021/12/17 03:46:35;;;;;;;12.40;8.35;;;;;14.60;103807.00;;;;5026673;28;20294;-79
2021/12/17 03:49:03;;;;;;;11.43;8.50;;;;;14.60;103809.00;;;;5022907;28;20223;-79
2021/12/17 03:51:30;;;;;;;11.50;7.32;;;;;14.60;103809.00;;;;5028348;28;20201;-79
2021/12/17 03:53:59;;;;;;;11.07;7.68;;;;;14.60;103808.00;;;;5024177;28;20191;-79
2021/12/17 03:56:28;;;;;;;10.90;7.05;;;;;14.60;103815.00;;;;5026511;28;20263;-79
2021/12/17 03:58:57;;;;;;;9.50;5.95;;;;;14.60;103807.00;;;;5027649;28;20207;-79
2021/12/17 04:01:26;;;;;;;8.90;5.47;;;;;14.60;103804.00;;;;5027392;28;20235;-79
2021/12/17 04:03:53;;;;;;;8.32;5.40;;;;;14.60;103801.00;;;;5028938;28;20196;-79
2021/12/17 04:06:20;;;;;;;8.88;5.55;;;;;14.60;103800.00;;;;5025264;28;20200;-79
2021/12/17 04:08:47;;;;;;;9.75;6.07;;;;;14.60;103795.00;;;;5028250;28;20201;-79
2021/12/17 04:11:18;;;;;;;10.40;5.75;;;;;14.60;103798.00;;;;5027139;28;20913;-79
2021/12/17 04:13:53;;;;;;;7.63;4.63;;;;;14.60;103803.00;;;;5028366;28;20218;-79
2021/12/17 04:16:25;;;;;;;6.10;4.38;;;;;14.50;103801.00;;;;5026867;28;20279;-79
2021/12/17 04:18:53;;;;;;;6.35;4.57;;;;;14.60;103804.00;;;;5028143;28;20670;-79
2021/12/17 04:21:21;;;;;;;7.15;5.03;;;;;14.60;103807.00;;;;5023006;28;20242;-79
2021/12/17 04:23:50;;;;;;;6.53;4.97;;;;;14.60;103804.00;;;;5025219;28;20231;-79
2021/12/17 04:26:19;;;;;;;8.32;5.63;;;;;14.60;103809.00;;;;5027419;28;20196;-79
2021/12/17 04:28:50;;;;;;;7.35;5.25;;;;;14.60;103805.00;;;;5028706;28;20200;-79
2021/12/17 04:31:21;;;;;;;7.78;5.65;;;;;14.60;103807.00;;;;5027377;28;20200;-80
2021/12/17 04:33:49;;;;;;;8.65;5.15;;;;;14.70;103806.00;;;;5027279;28;20654;-80
2021/12/17 04:36:23;;;;;;;7.75;5.22;;;;;14.70;103805.00;;;;5027763;28;20188;-80
2021/12/17 04:38:50;;;;;;;7.53;5.28;;;;;14.70;103816.00;;;;5009536;28;20287;-79
2021/12/17 04:41:43;;;;;;;9.35;5.68;;;;;14.70;103810.00;;;;5027054;28;20671;-80
2021/12/17 04:44:15;;;;;;;11.30;6.38;;;;;14.70;103808.00;;;;5031657;28;20254;-80
2021/12/17 04:46:48;;;;;;;8.15;5.63;;;;;14.60;103807.00;;;;5030964;28;20673;-80
2021/12/17 04:57:34;;;;;;;7.95;4.45;;;;;14.60;103807.00;;;;5029271;28;20732;-79
2021/12/17 05:00:06;;;;;;;6.32;4.50;;;;;14.60;103807.00;;;;5031398;28;20185;-80
2021/12/17 05:02:39;;;;;;;5.88;3.65;;;;;14.60;103814.00;;;;5017220;28;20554;-79
2021/12/17 05:05:09;;;;;;;5.55;3.78;;;;;14.60;103822.00;;;;5030834;28;20184;-79
2021/12/17 05:07:41;;;;;;;8.07;4.38;;;;;14.60;103819.00;;;;5031044;28;20192;-80
2021/12/17 05:10:17;;;;;;;6.75;4.78;;;;;14.60;103826.00;;;;5031001;28;20687;-79
2021/12/17 05:18:18;;;;;;;6.90;4.90;;;;;14.60;103830.00;;;;5021457;28;20243;-80
2021/12/17 05:20:49;;;;;;;6.88;4.82;;;;;14.50;103821.00;;;;5031189;28;20201;-79
2021/12/17 05:23:19;;;;;;;5.55;3.53;;;;;14.60;103820.00;;;;5030495;28;20604;-80
2021/12/17 05:25:46;;;;;;;5.95;3.92;;;;;14.50;103826.00;;;;5027370;28;20246;-80
2021/12/17 05:28:15;;;;;;;5.93;3.70;;;;;14.50;103818.00;;;;5026173;28;20204;-80
2021/12/17 05:30:46;;;;;;;4.25;2.85;;;;;14.50;103822.00;;;;5029032;28;20999;-79
2021/12/17 05:33:13;;;;;;;6.15;3.72;;;;;14.50;103824.00;;;;5030384;28;20196;-79
2021/12/17 05:35:40;;;;;;;5.53;3.35;;;;;14.50;103838.00;;;;5030277;28;20203;-79
2021/12/17 05:38:10;;;;;;;5.13;3.30;;;;;14.50;103838.00;;;;5030552;28;20219;-80
2021/12/17 05:40:38;;;;;;;4.45;3.38;;;;;14.50;103835.00;;;;5030673;28;20204;-80
2021/12/17 05:43:06;;;;;;;4.10;3.08;;;;;14.50;103834.00;;;;5030667;28;20216;-79
2021/12/17 05:45:36;;;;;;;4.50;2.92;;;;;14.50;103832.00;;;;5033324;28;20204;-80
2021/12/17 05:48:06;;;;;;;5.00;2.90;;;;;14.40;103830.00;;;;5033963;28;20306;-80
2021/12/17 05:50:34;;;;;;;3.58;2.58;;;;;14.50;103833.00;;;;5030000;28;20188;-80
2021/12/17 05:53:01;;;;;;;4.75;2.90;;;;;14.50;103839.00;;;;5030123;28;20215;-80
2021/12/17 05:55:30;;;;;;;3.92;2.45;;;;;14.40;103834.00;;;;5030051;28;20206;-79
2021/12/17 05:57:58;;;;;;;3.83;3.22;;;;;14.40;103820.00;;;;5030992;28;20200;-80
2021/12/17 06:00:29;;;;;;;5.15;3.10;;;;;14.40;103822.00;;;;5029797;28;20204;-80
2021/12/17 06:02:57;;;;;;;5.45;3.30;;;;;14.40;103824.00;;;;5029162;28;20315;-80
2021/12/17 06:05:24;;;;;;;4.20;2.88;;;;;14.40;103825.00;;;;5026366;28;20200;-80
2021/12/17 06:07:52;;;;;;;4.85;2.83;;;;;14.50;103834.00;;;;5030167;28;20196;-82
2021/12/17 06:10:19;;;;;;;5.20;3.28;;;;;14.50;103831.00;;;;5030051;28;20196;-82
2021/12/17 06:12:48;;;;;;;4.65;2.97;;;;;14.50;103835.00;;;;5030716;28;20200;-82
2021/12/17 06:15:18;;;;;;;4.65;3.10;;;;;14.50;103835.00;;;;5028289;28;20219;-82
2021/12/17 06:17:46;;;;;;;4.90;2.85;;;;;14.50;103844.00;;;;5025850;28;20197;-83
2021/12/17 06:20:15;;;;;;;4.60;2.53;;;;;14.50;103836.00;;;;5029196;28;20207;-80
2021/12/17 06:22:43;;;;;;;4.65;2.95;;;;;14.50;103849.00;;;;5027039;28;20931;-83
2021/12/17 06:25:12;;;;;;;7.25;3.25;;;;;14.50;103849.00;;;;5029059;28;20526;-80
2021/12/17 06:27:40;;;;;;;3.92;2.33;;;;;14.50;103847.00;;;;5020669;28;20412;-80
2021/12/17 06:30:12;;;;;;;4.97;2.75;;;;;14.50;103857.00;;;;5012167;28;20197;-79
2021/12/17 06:32:39;;;;;;;4.68;2.90;;;;;14.50;103850.00;;;;5027817;28;20625;-79
2021/12/17 06:35:08;;;;;;;4.97;2.63;;;;;14.50;103859.00;;;;5028512;28;20247;-79
2021/12/17 06:37:37;;;;;;;3.70;2.55;;;;;14.50;103853.00;;;;5029514;28;20208;-80
2021/12/17 06:40:06;;;;;;;3.55;2.28;;;;;14.50;103854.00;;;;5012281;28;20284;-80
2021/12/17 06:42:33;;;;;;;4.72;2.53;;;;;14.50;103855.00;;;;5027941;28;20219;-78
2021/12/17 06:45:08;;;;;;;4.38;2.65;;;;;14.50;103862.00;;;;5024874;28;20215;-79
2021/12/17 06:47:38;;;;;;;4.07;2.30;;;;;14.50;103863.00;;;;5023503;28;20220;-79
2021/12/17 06:58:51;;;;;;;3.80;2.00;;;;;14.40;103864.00;;;;5028518;28;20284;-78
2021/12/17 07:05:51;;;;;;;4.22;2.00;;;;;14.40;103857.00;;;;5026819;28;20195;-79
2021/12/17 07:07:38;;;;;;;4.22;2.28;;;;;14.40;103864.00;;;;5029720;28;20242;-79
2021/12/17 07:10:14;;;;;;;5.07;2.53;;;;;14.40;103850.00;;;;5029515;28;20684;-79
2021/12/17 07:32:20;;;;;;;4.32;2.40;;;;;14.40;103848.00;;;;4988892;28;20569;-78
2021/12/17 07:35:23;;;;;;;3.95;2.13;;;;;14.40;103849.00;;;;5009718;28;20209;-79
2021/12/17 07:40:32;;;;;;;3.67;2.50;;;;;14.40;103861.00;;;;5009582;28;20290;-79
2021/12/17 07:43:11;;;;;;;4.57;2.47;;;;;14.40;103855.00;;;;5009591;28;20224;-79
2021/12/17 07:45:38;;;;;;;4.70;2.40;;;;;14.40;103864.00;;;;5026961;28;20294;-78
2021/12/17 07:48:07;;;;;;;4.07;2.40;;;;;14.40;103863.00;;;;5010546;28;20224;-78
2021/12/17 07:50:34;;;;;;;4.45;2.55;;;;;14.40;103864.00;;;;5009369;28;20289;-79
2021/12/17 07:53:03;;;;;;;4.95;2.58;;;;;14.40;103860.00;;;;5018723;28;20230;-77
2021/12/17 07:55:30;;;;;;;4.57;2.85;;;;;14.40;103875.00;;;;5028843;28;20192;-78
2021/12/17 07:57:58;;;;;;;5.10;2.63;;;;;14.40;103879.00;;;;5028582;28;20200;-78
2021/12/17 08:00:25;;;;;;;2.90;1.90;;;;;14.40;103881.00;;;;5028449;28;20202;-78
2021/12/17 08:02:53;;;;;;;5.03;2.25;;;;;14.40;103889.00;;;;5028725;28;20725;-78
2021/12/17 08:05:20;;;;;;;3.65;2.33;;;;;14.40;103872.00;;;;5027455;28;20204;-79
2021/12/17 08:07:47;;;;;;;4.95;2.60;;;;;14.40;103870.00;;;;5028926;28;20291;-79
2021/12/17 08:10:16;;;;;;;7.20;3.10;;;;;14.40;103872.00;;;;5028925;28;20215;-79
2021/12/17 08:12:43;;;;;;;3.33;2.03;;;;;14.40;103871.00;;;;5027830;28;20204;-79
2021/12/17 08:15:12;;;;;;;4.03;2.50;;;;;14.40;103869.00;;;;5031224;28;20204;-79
2021/12/17 08:18:13;;;;;;;3.55;2.10;;;;;14.40;103881.00;;;;5031384;28;21092;-79
2021/12/17 08:26:17;;;;;;;4.35;2.50;;;;;14.50;103876.00;;;;5032278;28;20279;-77
2021/12/17 08:29:06;;;;;;;4.05;2.40;;;;;14.50;103874.00;;;;5031645;28;20191;-77
2021/12/17 08:31:34;;;;;;;2.47;1.77;;;;;14.50;103873.00;;;;5030688;28;20296;-79
2021/12/17 08:34:04;;;;;;;3.25;1.98;;;;;14.50;103871.00;;;;5031445;28;20208;-78
2021/12/17 08:36:32;;;;;;;2.97;1.92;;;;;14.60;103875.00;;;;5032252;28;20733;-78
2021/12/17 08:39:00;;;;;;;3.10;2.00;;;;;14.60;103886.00;;;;5016797;28;20193;-78
2021/12/17 08:41:29;;;;;;;3.97;2.42;;;;;14.60;103881.00;;;;5032716;28;20196;-79
2021/12/17 08:43:56;;;;;;;2.80;1.63;;;;;14.70;103871.00;;;;5032368;28;21125;-79
2021/12/17 08:46:24;;;;;;;4.20;2.70;;;;;14.70;103883.00;;;;5032465;28;20227;-78
2021/12/17 08:48:52;;;;;;;3.95;2.58;;;;;14.70;103884.00;;;;5031212;28;20224;-79
2021/12/17 08:51:21;;;;;;;2.63;1.85;;;;;14.70;103891.00;;;;5028009;28;20303;-79
2021/12/17 08:53:48;;;;;;;2.65;1.45;;;;;14.70;103890.00;;;;5027782;28;20200;-78
2021/12/17 08:56:19;;;;;;;3.25;1.77;;;;;14.70;103897.00;;;;5014886;28;20228;-79
2021/12/17 08:58:51;;;;;;;2.85;1.60;;;;;14.70;103891.00;;;;5020374;28;20313;-79
2021/12/17 09:01:18;;;;;;;3.22;1.50;;;;;14.70;103889.00;;;;5029254;28;20682;-79
2021/12/17 09:03:47;;;;;;;3.67;1.75;;;;;14.70;103885.00;;;;5029283;28;20219;-78
2021/12/17 09:06:15;;;;;;;4.35;1.58;;;;;14.70;103884.00;;;;5030547;28;20200;-78
2021/12/17 09:08:43;;;;;;;2.92;1.33;;;;;14.70;103891.00;;;;5031597;28;20682;-78
2021/12/17 09:11:11;;;;;;;3.22;1.73;;;;;14.70;103889.00;;;;5030911;28;20215;-78
2021/12/17 09:13:38;;;;;;;2.42;1.45;;;;;14.70;103896.00;;;;5029500;28;20205;-78
2021/12/17 09:16:07;;;;;;;2.58;1.60;;;;;14.70;103896.00;;;;5031429;28;20200;-78
2021/12/17 09:18:35;;;;;;;3.15;1.63;;;;;14.70;103900.00;;;;5030547;28;20196;-78
2021/12/17 09:21:03;;;;;;;2.63;1.58;;;;;14.80;103898.00;;;;5032062;28;20720;-77
2021/12/17 09:23:30;;;;;;;2.80;1.83;;;;;14.80;103903.00;;;;5029668;28;20621;-78
2021/12/17 09:25:57;;;;;;;2.67;1.65;;;;;14.80;103908.00;;;;5029387;28;20222;-78
2021/12/17 09:28:25;;;;;;;2.80;1.95;;;;;14.70;103903.00;;;;5026582;28;20610;-77
2021/12/17 09:30:53;;;;;;;2.80;1.55;;;;;14.80;103905.00;;;;5028063;28;20234;-76
2021/12/17 09:33:22;;;;;;;2.05;1.25;;;;;14.70;103906.00;;;;5026562;28;20275;-77
2021/12/17 09:35:49;;;;;;;2.58;1.83;;;;;14.70;103910.00;;;;5030416;28;20196;-77
2021/12/17 09:38:16;;;;;;;2.88;1.63;;;;;14.70;103913.00;;;;5026474;28;20200;-77
2021/12/17 09:40:44;;;;;;;2.80;1.40;;;;;14.70;103913.00;;;;5028925;28;20208;-77
2021/12/17 09:43:14;;;;;;;2.42;1.63;;;;;14.70;103912.00;;;;5030679;28;20213;-77
2021/12/17 09:45:42;;;;;;;4.03;1.48;;;;;14.70;103928.00;;;;5028277;28;20204;-78
2021/12/17 09:48:09;;;;;;;2.92;1.70;;;;;14.70;103927.00;;;;5029257;28;20224;-77
2021/12/17 09:50:37;;;;;;;2.72;1.77;;;;;14.70;103926.00;;;;5029914;28;20201;-77
2021/12/17 09:53:05;;;;;;;3.25;1.65;;;;;14.80;103937.00;;;;5029516;28;20203;-77
2021/12/17 09:55:32;;;;;;;3.42;1.92;;;;;14.80;103938.00;;;;5030121;28;20199;-77
2021/12/17 09:57:59;;;;;;;2.65;1.70;;;;;14.80;103941.00;;;;5029840;28;20207;-78
2021/12/17 10:00:28;;;;;;;2.50;1.50;;;;;14.80;103953.00;;;;5029158;28;20667;-77
2021/12/17 10:02:56;;;;;;;3.28;2.00;;;;;14.90;103955.00;;;;5021304;28;20224;-78
2021/12/17 10:05:27;;;;;;;2.88;1.52;;;;;14.90;103948.00;;;;5029804;28;20698;-77
2021/12/17 10:07:58;;;;;;;4.30;2.05;;;;;14.90;103950.00;;;;5029495;28;20209;-78
2021/12/17 10:10:34;;;;;;;3.20;1.95;;;;;14.90;103961.00;;;;5018895;28;20205;-78
2021/12/17 10:13:13;;;;;;;2.25;1.50;;;;;14.90;103964.00;;;;5029076;28;20203;-78
2021/12/17 10:15:43;;;;;;;4.00;1.70;;;;;14.90;103961.00;;;;5029474;28;20215;-78
2021/12/17 10:18:11;;;;;;;2.53;1.38;;;;;15.00;103961.00;;;;5029529;28;20212;-78
2021/12/17 10:20:43;;;;;;;3.60;1.50;;;;;14.90;103958.00;;;;5029064;28;20188;-78
2021/12/17 10:23:13;;;;;;;2.20;1.30;;;;;15.00;103956.00;;;;5028931;28;20228;-77
2021/12/17 10:25:44;;;;;;;2.50;1.30;;;;;15.00;103949.00;;;;5029762;28;20200;-78
2021/12/17 10:28:16;;;;;;;2.00;1.23;;;;;15.00;103954.00;;;;5028932;28;20276;-79
2021/12/17 10:30:46;;;;;;;3.28;1.13;;;;;15.00;103951.00;;;;5029627;28;20258;-79
2021/12/17 10:33:20;;;;;;;1.40;0.73;;;;;15.00;103954.00;;;;5028671;28;20207;-78
2021/12/17 10:35:51;;;;;;;1.55;1.00;;;;;15.00;103956.00;;;;5029277;28;20292;-79
2021/12/17 10:38:23;;;;;;;1.10;0.80;;;;;15.00;103960.00;;;;5025890;28;20204;-78
2021/12/17 10:41:03;;;;;;;0.95;0.65;;;;;15.00;103958.00;;;;5030707;28;20192;-78
2021/12/17 10:43:35;;;;;;;1.92;0.90;;;;;15.10;103953.00;;;;5029689;28;20226;-79
2021/12/17 10:46:08;;;;;;;1.63;0.80;;;;;15.10;103957.00;;;;5029896;28;20279;-79
2021/12/17 10:48:49;;;;;;;1.05;0.65;;;;;15.10;103954.00;;;;5028534;28;20694;-79
2021/12/17 10:51:29;;;;;;;1.70;0.75;;;;;15.10;103958.00;;;;5028740;28;20209;-78
2021/12/17 10:54:00;;;;;;;1.02;0.68;;;;;15.10;103955.00;;;;5020626;28;20256;-79
2021/12/17 10:56:31;;;;;;;0.82;0.55;;;;;15.10;103958.00;;;;5023712;28;20232;-78
2021/12/17 10:59:02;;;;;;;1.50;0.95;;;;;15.10;103958.00;;;;5028309;28;20205;-78
2021/12/17 11:01:32;;;;;;;2.17;1.08;;;;;15.10;103955.00;;;;5026503;28;20567;-78
2021/12/17 11:04:14;;;;;;;2.25;1.40;;;;;15.10;103951.00;;;;5028076;28;20357;-78
2021/12/17 11:06:43;;;;;;;1.48;0.68;;;;;15.10;103953.00;;;;5028578;28;20203;-78
2021/12/17 11:09:12;;;;;;;1.70;0.90;;;;;15.10;103939.00;;;;5028360;28;20192;-78
2021/12/17 11:11:42;;;;;;;1.40;0.90;;;;;15.10;103945.00;;;;5022421;28;20204;-78
2021/12/17 11:14:10;;;;;;;1.35;0.70;;;;;15.10;103951.00;;;;5026894;28;20608;-79
2021/12/17 11:16:39;;;;;;;1.42;0.80;;;;;15.10;103943.00;;;;5022287;28;20200;-79
2021/12/17 11:19:08;;;;;;;0.70;0.40;;;;;15.10;103940.00;;;;5021351;28;20208;-79
2021/12/17 11:21:35;;;;;;;0.65;0.50;;;;;15.20;103952.00;;;;5026101;28;20275;-78
2021/12/17 11:24:03;;;;;;;1.15;0.70;;;;;15.20;103950.00;;;;5026882;28;20220;-79
2021/12/17 11:26:33;;;;;;;1.08;0.57;;;;;15.10;103951.00;;;;5026172;28;20211;-78
2021/12/17 11:29:03;;;;;;;1.25;0.80;;;;;15.20;103952.00;;;;5013467;28;20204;-79
2021/12/17 11:31:32;;;;;;;4.13;0.80;;;;;15.20;103941.00;;;;5026465;28;20278;-79
2021/12/17 11:34:01;;;;;;;0.90;0.70;;;;;15.20;103946.00;;;;5027483;28;20671;-78
2021/12/17 11:36:29;;;;;;;1.95;0.73;;;;;15.20;103944.00;;;;5027992;28;20396;-80
2021/12/17 11:39:06;;;;;;;1.70;0.85;;;;;15.10;103933.00;;;;5028394;28;20547;-80
2021/12/17 11:41:47;;;;;;;1.08;0.73;;;;;15.10;103936.00;;;;5028435;28;20208;-80
2021/12/17 11:44:19;;;;;;;1.30;0.80;;;;;15.20;103937.00;;;;5026305;28;20290;-79
2021/12/17 11:47:02;;;;;;;0.85;0.50;;;;;15.10;103945.00;;;;5008409;28;20279;-80
2021/12/17 11:49:34;;;;;;;1.08;0.55;;;;;15.20;103939.00;;;;5008567;28;20711;-80
2021/12/17 11:52:03;;;;;;;0.90;0.50;;;;;15.20;103935.00;;;;5009648;28;20236;-80
2021/12/17 11:54:32;;;;;;;0.88;0.52;;;;;15.20;103942.00;;;;5022251;28;20219;-80
2021/12/17 11:57:08;;;;;;;1.23;0.52;;;;;15.10;103950.00;;;;5027964;28;20753;-80
2021/12/17 11:59:39;;;;;;;1.90;1.10;;;;;15.20;103946.00;;;;5028901;28;20227;-80
2021/12/17 12:02:15;;;;;;;1.00;0.50;;;;;15.10;103947.00;;;;5019942;28;20204;-80
2021/12/17 12:04:55;;;;;;;0.50;0.40;;;;;15.10;103947.00;;;;5008793;28;20255;-80
2021/12/17 12:07:34;;;;;;;1.27;0.77;;;;;15.10;103945.00;;;;5008566;28;20196;-80
2021/12/17 12:10:08;;;;;;;1.00;0.60;;;;;15.10;103939.00;;;;5009137;28;20291;-80
2021/12/17 12:13:00;;;;;;;1.45;0.90;;;;;15.10;103941.00;;;;5024467;28;20223;-80
2021/12/17 12:15:42;;;;;;;1.42;0.50;;;;;15.10;103941.00;;;;5027148;28;20196;-80
2021/12/17 12:18:12;;;;;;;0.93;0.57;;;;;15.10;103933.00;;;;5026899;28;20200;-80
2021/12/17 12:20:57;;;;;;;0.60;0.40;;;;;15.10;103939.00;;;;5008236;28;20197;-79
2021/12/17 12:23:37;;;;;;;1.63;0.57;;;;;15.10;103931.00;;;;5008642;28;20212;-80
2021/12/17 12:26:14;;;;;;;1.52;0.68;;;;;15.10;103936.00;;;;5028528;28;20227;-80
2021/12/17 12:28:48;;;;;;;1.30;0.60;;;;;15.10;103934.00;;;;5027997;28;20200;-80
2021/12/17 12:31:43;;;;;;;1.00;0.50;;;;;15.00;103944.00;;;;5028425;28;20201;-80
2021/12/17 12:34:13;;;;;;;0.73;0.40;;;;;15.20;103944.00;;;;5027663;28;20207;-80
2021/12/17 12:36:48;;;;;;;1.10;0.60;;;;;15.10;103936.00;;;;5008306;28;20905;-80
2021/12/17 12:39:17;;;;;;;0.68;0.43;;;;;15.20;103933.00;;;;5016388;28;20200;-79
2021/12/17 12:41:49;;;;;;;0.73;0.63;;;;;15.20;103927.00;;;;5028213;28;20200;-80
2021/12/17 12:44:17;;;;;;;0.70;0.57;;;;;15.20;103932.00;;;;5027244;28;20232;-80
2021/12/17 12:46:56;;;;;;;1.17;0.70;;;;;15.20;103938.00;;;;5027853;28;20188;-80
2021/12/17 12:49:48;;;;;;;0.95;0.70;;;;;15.10;103924.00;;;;5027715;28;20227;-80
2021/12/17 12:52:21;;;;;;;1.10;0.50;;;;;15.20;103933.00;;;;5015855;28;20212;-80
2021/12/17 12:54:50;;;;;;;1.63;0.90;;;;;15.30;103935.00;;;;5024134;28;20204;-78
2021/12/17 12:57:29;;;;;;;0.73;0.50;;;;;15.20;103915.00;;;;5027777;28;20471;-78
2021/12/17 13:00:00;;;;;;;1.10;0.77;;;;;15.30;103914.00;;;;5028646;28;20204;-78
2021/12/17 13:02:28;;;;;;;0.90;0.70;;;;;15.30;103915.00;;;;5026586;28;20192;-78
2021/12/17 13:04:57;;;;;;;1.15;0.70;;;;;15.30;103917.00;;;;5030881;28;20250;-77
2021/12/17 13:07:36;;;;;;;1.17;0.80;;;;;15.20;103913.00;;;;5030844;28;20212;-78
2021/12/17 13:10:12;;;;;;;1.00;0.50;;;;;15.30;103923.00;;;;5027705;28;20207;-77
2021/12/17 13:12:39;;;;;;;1.65;0.77;;;;;15.40;103914.00;;;;5028918;28;20583;-78
2021/12/17 13:15:20;;;;;;;1.60;1.15;;;;;15.30;103914.00;;;;5029620;28;20208;-77
2021/12/17 13:21:04;;;;;;;1.33;0.82;;;;;15.40;103903.00;;;;4998559;28;20308;-77
2021/12/17 13:23:37;;;;;;;1.63;1.00;;;;;15.40;103912.00;;;;5030419;28;20745;-78
2021/12/17 13:26:09;;;;;;;1.58;1.00;;;;;15.40;103904.00;;;;5029968;28;20287;-77
2021/12/17 13:28:55;;;;;;;1.10;0.65;;;;;15.40;103903.00;;;;5030536;28;20200;-78
2021/12/17 13:31:43;;;;;;;2.33;1.30;;;;;15.40;103911.00;;;;5030727;28;20200;-78
2021/12/17 13:34:14;;;;;;;1.10;0.75;;;;;15.50;103905.00;;;;5030940;28;20203;-78
2021/12/17 13:36:56;;;;;;;1.95;0.90;;;;;15.50;103908.00;;;;5030391;28;20196;-79
2021/12/17 13:39:26;;;;;;;1.67;0.98;;;;;15.60;103902.00;;;;5029310;28;20205;-78
2021/12/17 13:41:53;;;;;;;2.08;0.90;;;;;15.60;103902.00;;;;5025999;28;20250;-78
2021/12/17 13:44:37;;;;;;;1.60;1.05;;;;;15.60;103898.00;;;;5022632;28;20239;-79
2021/12/17 13:47:28;;;;;;;1.30;0.90;;;;;15.60;103895.00;;;;5031433;28;20196;-79
2021/12/17 13:50:01;;;;;;;1.17;0.85;;;;;15.60;103896.00;;;;5030219;28;20701;-78
2021/12/17 13:52:31;;;;;;;4.25;1.95;;;;;15.70;103895.00;;;;5029881;28;20215;-78
2021/12/17 13:55:00;;;;;;;1.73;1.25;;;;;15.70;103897.00;;;;5030478;28;20246;-78
2021/12/17 13:57:32;;;;;;;1.38;0.80;;;;;15.70;103897.00;;;;5022127;28;20235;-78
2021/12/17 14:00:08;;;;;;;1.20;1.02;;;;;15.70;103898.00;;;;5022008;28;20215;-78
2021/12/17 14:02:38;;;;;;;1.17;0.95;;;;;15.70;103901.00;;;;5028023;28;20666;-78
2021/12/17 14:05:09;;;;;;;1.33;0.90;;;;;15.80;103896.00;;;;5029170;28;20594;-78
2021/12/17 14:07:38;;;;;;;1.45;1.00;;;;;15.80;103897.00;;;;5029674;28;20658;-78
2021/12/17 14:10:10;;;;;;;0.88;0.80;;;;;15.80;103897.00;;;;5029620;28;20909;-78
2021/12/17 14:12:40;;;;;;;2.17;1.35;;;;;15.80;103896.00;;;;5023464;28;20204;-78
2021/12/17 14:15:11;;;;;;;1.48;1.05;;;;;15.80;103892.00;;;;5022145;28;20291;-78
2021/12/17 14:17:44;;;;;;;1.90;1.40;;;;;15.80;103892.00;;;;5026086;28;20199;-79
2021/12/17 14:20:13;;;;;;;1.58;1.05;;;;;15.80;103894.00;;;;5024329;28;20247;-80
2021/12/17 14:22:43;;;;;;;1.30;1.17;;;;;15.80;103897.00;;;;5023809;28;20291;-79
2021/12/17 14:25:29;;;;;;;1.20;1.00;;;;;15.70;103894.00;;;;5026591;28;20216;-78
2021/12/17 14:27:59;;;;;;;1.48;1.23;;;;;15.80;103897.00;;;;5024702;28;20200;-80
2021/12/17 14:30:33;;;;;;;1.60;1.30;;;;;15.80;103900.00;;;;5028005;28;20196;-82
2021/12/17 14:33:08;;;;;;;1.38;1.10;;;;;15.80;103889.00;;;;5016643;28;20196;-79